createdAt,value
2018-12-26T03:01:40.018Z,7.37
2018-12-26T03:04:09.284Z,7.60
2018-12-26T03:06:38.580Z,7.43
2018-12-26T03:09:07.841Z,6.50
2018-12-26T03:11:37.165Z,7.83
2018-12-26T03:14:06.817Z,6.87
2018-12-26T03:16:37.026Z,7.30
2018-12-26T03:19:06.915Z,6.87
2018-12-26T03:21:36.171Z,7.50
2018-12-26T03:24:06.173Z,6.70
2018-12-26T03:26:35.470Z,7.03
2018-12-26T03:29:05.409Z,7.00
2018-12-26T03:31:34.658Z,6.60
2018-12-26T03:34:03.945Z,7.17
2018-12-26T03:36:33.401Z,6.77
2018-12-26T03:39:04.541Z,7.57
2018-12-26T03:41:33.829Z,6.83
2018-12-26T03:44:03.863Z,7.23
2018-12-26T03:46:33.991Z,7.40
2018-12-26T03:49:03.887Z,7.17
2018-12-26T03:51:33.140Z,7.20
2018-12-26T03:54:03.459Z,7.03
2018-12-26T03:56:34.271Z,7.33
2018-12-26T03:59:04.217Z,6.33
2018-12-26T04:01:33.939Z,7.03
2018-12-26T04:04:03.237Z,7.23
2018-12-26T04:06:32.518Z,6.67
2018-12-26T04:09:04.424Z,6.10
2018-12-26T04:11:33.701Z,7.07
2018-12-26T04:14:03.884Z,7.60
2018-12-26T04:16:33.178Z,7.40
2018-12-26T04:19:03.000Z,6.87
2018-12-26T04:21:33.813Z,6.60
2018-12-26T04:24:03.753Z,6.67
2018-12-26T04:26:33.809Z,6.60
2018-12-26T04:29:03.726Z,6.87
2018-12-26T04:31:32.983Z,6.83
2018-12-26T04:34:03.702Z,6.47
2018-12-26T04:36:33.129Z,6.80
2018-12-26T04:39:03.831Z,7.20
2018-12-26T04:41:33.137Z,7.10
2018-12-26T04:44:03.945Z,7.43
2018-12-26T04:46:33.500Z,6.80
2018-12-26T04:49:03.278Z,7.20
2018-12-26T04:51:33.434Z,6.33
2018-12-26T04:54:03.979Z,6.00
2018-12-26T04:56:33.578Z,6.83
2018-12-26T04:59:03.529Z,6.53
2018-12-26T05:01:33.377Z,6.97
2018-12-26T05:04:03.749Z,6.43
2018-12-26T05:06:34.272Z,7.37
2018-12-26T05:09:04.793Z,7.40
2018-12-26T05:11:34.455Z,7.40
2018-12-26T05:14:04.112Z,7.60
2018-12-26T05:16:36.237Z,7.37
2018-12-26T05:19:06.069Z,6.80
2018-12-26T05:21:35.806Z,7.63
2018-12-26T05:24:05.156Z,7.00
2018-12-26T05:26:35.278Z,6.73
2018-12-26T05:29:05.042Z,7.30
2018-12-26T05:31:34.340Z,7.47
2018-12-26T05:34:03.950Z,7.17
2018-12-26T05:36:33.886Z,6.60
2018-12-26T05:39:06.858Z,6.87
2018-12-26T05:41:36.149Z,7.40
2018-12-26T05:44:05.665Z,7.10
2018-12-26T05:46:35.892Z,6.60
2018-12-26T05:49:05.820Z,6.67
2018-12-26T05:51:36.346Z,6.20
2018-12-26T05:54:06.274Z,6.37
2018-12-26T05:56:36.409Z,6.40
2018-12-26T05:59:06.239Z,7.10
2018-12-26T06:01:35.807Z,6.20
2018-12-26T06:04:05.063Z,6.40
2018-12-26T06:06:34.356Z,7.10
2018-12-26T06:09:04.487Z,7.27
2018-12-26T06:11:33.756Z,7.20
2018-12-26T06:14:03.430Z,7.67
2018-12-26T06:16:33.261Z,7.40
2018-12-26T06:19:03.913Z,7.70
2018-12-26T06:21:33.762Z,9.07
2018-12-26T06:24:03.998Z,13.43
2018-12-26T06:26:33.923Z,21.77
2018-12-26T06:29:04.745Z,19.40
2018-12-26T06:31:35.522Z,15.27
2018-12-26T06:34:04.781Z,9.07
2018-12-26T06:36:34.609Z,20.13
2018-12-26T06:39:04.906Z,9.03
2018-12-26T06:41:34.178Z,22.47
2018-12-26T06:44:04.050Z,10.27
2018-12-26T06:46:34.449Z,14.63
2018-12-26T06:49:04.337Z,16.17
2018-12-26T06:51:34.172Z,9.10
2018-12-26T06:54:04.441Z,9.50
2018-12-26T06:56:33.966Z,15.00
2018-12-26T06:59:03.919Z,9.10
2018-12-26T07:01:34.227Z,9.23
2018-12-26T07:04:03.794Z,12.63
2018-12-26T07:06:34.029Z,19.40
2018-12-26T07:09:05.248Z,9.43
2018-12-26T07:11:34.510Z,8.33
2018-12-26T07:14:03.805Z,11.07
2018-12-26T07:16:33.373Z,8.40
2018-12-26T07:19:03.302Z,8.97
2018-12-26T07:21:33.128Z,7.90
2018-12-26T07:24:03.541Z,7.70
2018-12-26T07:26:33.446Z,8.60
2018-12-26T07:29:03.466Z,8.30
2018-12-26T07:31:32.757Z,8.43
2018-12-26T07:34:03.481Z,8.97
2018-12-26T07:36:33.449Z,7.60
2018-12-26T07:39:04.393Z,7.17
2018-12-26T07:41:33.682Z,7.90
2018-12-26T07:44:04.231Z,6.93
2018-12-26T07:46:35.554Z,7.23
2018-12-26T07:49:05.195Z,7.30
2018-12-26T07:51:34.901Z,7.87
2018-12-26T07:54:04.169Z,8.03
2018-12-26T07:56:34.845Z,7.50
2018-12-26T07:59:04.121Z,7.97
2018-12-26T08:01:33.576Z,8.03
2018-12-26T08:04:03.209Z,7.93
2018-12-26T08:06:33.176Z,7.57
2018-12-26T08:09:04.242Z,8.47
2018-12-26T08:11:33.797Z,7.97
2018-12-26T08:14:03.818Z,7.73
2018-12-26T08:16:34.354Z,8.10
2018-12-26T08:19:04.150Z,8.53
2018-12-26T08:21:34.134Z,8.53
2018-12-26T08:24:04.173Z,7.93
2018-12-26T08:26:33.514Z,8.77
2018-12-26T08:29:03.813Z,9.00
2018-12-26T08:31:33.778Z,9.17
2018-12-26T08:34:03.626Z,8.53
2018-12-26T08:36:33.768Z,9.10
2018-12-26T08:39:04.206Z,10.07
2018-12-26T08:41:33.466Z,9.57
2018-12-26T08:44:02.783Z,10.67
2018-12-26T08:46:32.595Z,10.33
2018-12-26T08:49:02.865Z,10.47
2018-12-26T08:51:32.448Z,11.13
2018-12-26T08:54:03.182Z,10.47
2018-12-26T08:56:32.780Z,11.40
2018-12-26T08:59:02.052Z,11.77
2018-12-26T09:01:31.357Z,11.10
2018-12-26T09:04:03.898Z,11.23
2018-12-26T09:06:33.991Z,11.37
2018-12-26T09:09:07.055Z,10.70
2018-12-26T09:11:37.005Z,10.80
2018-12-26T09:14:07.513Z,11.77
2018-12-26T09:16:37.492Z,11.27
2018-12-26T09:19:06.796Z,10.40
2018-12-26T09:21:36.113Z,10.00
2018-12-26T09:24:05.385Z,10.87
2018-12-26T09:26:34.771Z,10.07
2018-12-26T09:29:04.038Z,11.53
2018-12-26T09:31:33.423Z,11.48
2018-12-26T09:34:04.005Z,10.17
2018-12-26T09:36:33.401Z,10.57
2018-12-26T09:39:04.342Z,10.10
2018-12-26T09:41:33.946Z,10.27
2018-12-26T09:44:03.540Z,10.40
2018-12-26T09:46:33.876Z,10.40
2018-12-26T09:49:04.673Z,9.40
2018-12-26T09:51:34.649Z,10.57
2018-12-26T09:54:05.096Z,11.53
2018-12-26T09:56:34.658Z,11.17
2018-12-26T09:59:04.580Z,11.60
2018-12-26T10:01:34.677Z,11.30
2018-12-26T10:04:05.697Z,10.83
2018-12-26T10:06:35.338Z,11.67
2018-12-26T10:09:06.163Z,14.17
2018-12-26T10:11:36.037Z,13.30
2018-12-26T10:14:05.297Z,13.17
2018-12-26T10:16:35.311Z,13.60
2018-12-26T10:19:04.649Z,16.30
2018-12-26T10:21:34.515Z,14.23
2018-12-26T10:24:05.537Z,15.70
2018-12-26T10:26:35.085Z,13.83
2018-12-26T10:29:04.405Z,15.37
2018-12-26T10:31:34.085Z,12.73
2018-12-26T10:34:04.076Z,12.97
2018-12-26T10:36:33.370Z,14.07
2018-12-26T10:39:03.251Z,13.87
2018-12-26T10:41:32.509Z,14.80
2018-12-26T10:44:02.658Z,13.43
2018-12-26T10:46:31.953Z,12.87
2018-12-26T10:49:02.812Z,12.47
2018-12-26T10:51:32.089Z,12.00
2018-12-26T10:54:02.753Z,11.97
2018-12-26T10:56:33.010Z,12.93
2018-12-26T10:59:09.926Z,12.77
2018-12-26T11:01:35.076Z,13.63
2018-12-26T11:04:05.432Z,14.80
2018-12-26T11:06:34.698Z,14.83
2018-12-26T11:09:05.607Z,14.33
2018-12-26T11:11:34.878Z,15.33
2018-12-26T11:14:05.804Z,15.37
2018-12-26T11:16:35.726Z,14.63
2018-12-26T11:19:05.046Z,14.43
2018-12-26T11:21:34.935Z,13.83
2018-12-26T11:24:04.651Z,14.93
2018-12-26T11:26:34.587Z,15.67
2018-12-26T11:29:04.205Z,14.63
2018-12-26T11:31:34.233Z,15.60
2018-12-26T11:34:03.502Z,16.07
2018-12-26T11:36:45.474Z,14.80
2018-12-26T11:39:14.758Z,15.87
2018-12-26T11:41:44.101Z,15.03
2018-12-26T11:44:13.389Z,14.57
2018-12-26T11:46:42.736Z,14.87
2018-12-26T11:49:12.025Z,14.23
2018-12-26T11:51:41.309Z,14.00
2018-12-26T11:54:10.651Z,14.20
2018-12-26T11:56:39.919Z,14.80
2018-12-26T11:59:09.255Z,14.40
2018-12-26T12:01:38.593Z,14.23
2018-12-26T12:04:07.873Z,13.73
2018-12-26T12:06:37.149Z,13.50
2018-12-26T12:09:07.469Z,14.50
2018-12-26T12:11:36.747Z,14.63
2018-12-26T12:14:06.074Z,14.43
2018-12-26T12:16:35.374Z,15.00
2018-12-26T12:19:04.645Z,16.07
2018-12-26T12:21:33.979Z,15.37
2018-12-26T12:24:03.805Z,16.27
2018-12-26T12:26:33.148Z,16.40
2018-12-26T12:29:03.270Z,15.57
2018-12-26T12:31:32.571Z,17.43
2018-12-26T12:34:03.351Z,16.00
2018-12-26T12:36:32.645Z,16.30
2018-12-26T12:39:03.375Z,15.63
2018-12-26T12:41:32.647Z,16.10
2018-12-26T12:44:03.608Z,16.10
2018-12-26T12:46:33.620Z,15.23
2018-12-26T12:49:03.695Z,15.07
2018-12-26T12:51:33.045Z,14.90
2018-12-26T12:54:03.271Z,16.40
2018-12-26T12:56:32.596Z,17.63
2018-12-26T12:59:02.964Z,17.90
2018-12-26T13:01:32.252Z,23.43
2018-12-26T13:04:02.202Z,18.03
2018-12-26T13:06:31.482Z,17.83
2018-12-26T13:09:00.791Z,16.20
2018-12-26T13:11:30.047Z,14.37
2018-12-26T13:13:59.372Z,14.97
2018-12-26T13:16:28.674Z,16.03
2018-12-26T13:18:58.051Z,15.90
2018-12-26T13:21:27.338Z,14.50
2018-12-26T13:23:56.702Z,16.80
2018-12-26T13:26:26.054Z,15.57
2018-12-26T13:28:55.393Z,16.40
2018-12-26T13:31:24.734Z,16.63
2018-12-26T13:33:53.964Z,16.90
2018-12-26T13:36:23.322Z,16.00
2018-12-26T13:38:52.655Z,15.60
2018-12-26T13:41:21.959Z,15.40
2018-12-26T13:43:51.267Z,16.37
2018-12-26T13:46:20.640Z,16.07
2018-12-26T13:48:49.994Z,15.50
2018-12-26T13:51:19.293Z,15.37
2018-12-26T13:53:54.555Z,16.93
2018-12-26T13:56:23.865Z,15.83
2018-12-26T13:58:53.155Z,15.13
2018-12-26T14:01:22.768Z,14.97
2018-12-26T14:03:52.041Z,14.80
2018-12-26T14:06:21.387Z,14.20
2018-12-26T14:08:50.667Z,14.33
2018-12-26T14:11:20.017Z,14.63
2018-12-26T14:13:49.372Z,15.00
2018-12-26T14:16:18.709Z,14.50
2018-12-26T14:18:47.992Z,14.50
2018-12-26T14:21:17.330Z,17.93
2018-12-26T14:23:47.708Z,17.73
2018-12-26T14:26:17.035Z,16.67
2018-12-26T14:28:46.380Z,16.57
2018-12-26T14:31:15.723Z,14.97
2018-12-26T14:33:45.010Z,15.27
2018-12-26T14:36:14.350Z,16.03
2018-12-26T14:38:43.701Z,16.90
2018-12-26T14:41:13.378Z,19.00
2018-12-26T14:43:42.640Z,19.67
2018-12-26T14:46:11.984Z,18.03
2018-12-26T14:48:41.265Z,24.37
2018-12-26T14:51:10.631Z,29.57
2018-12-26T14:53:39.890Z,20.63
2018-12-26T14:56:09.266Z,17.63
2018-12-26T14:58:38.570Z,26.10
2018-12-26T15:01:07.862Z,26.67
2018-12-26T15:03:37.195Z,16.87
2018-12-26T15:06:06.566Z,16.70
2018-12-26T15:08:35.839Z,25.03
2018-12-26T15:11:05.138Z,21.90
2018-12-26T15:13:34.507Z,36.10
2018-12-26T15:16:03.795Z,25.50
2018-12-26T15:18:33.098Z,21.00
2018-12-26T15:21:02.465Z,20.30
2018-12-26T15:23:31.749Z,19.50
2018-12-26T15:26:02.705Z,19.60
2018-12-26T15:28:31.988Z,19.67
2018-12-26T15:31:02.758Z,22.00
2018-12-26T15:33:32.111Z,19.93
2018-12-26T15:36:01.415Z,20.43
2018-12-26T15:38:30.811Z,19.63
2018-12-26T15:41:00.194Z,20.40
2018-12-26T15:43:29.542Z,19.53
2018-12-26T15:45:58.821Z,17.63
2018-12-26T15:48:28.162Z,17.60
2018-12-26T15:50:57.440Z,18.63
2018-12-26T15:53:26.723Z,17.03
2018-12-26T15:55:56.061Z,15.63
2018-12-26T15:58:25.362Z,16.40
2018-12-26T16:00:54.694Z,16.60
2018-12-26T16:03:24.052Z,16.90
2018-12-26T16:05:53.350Z,16.83
2018-12-26T16:08:22.625Z,16.47
2018-12-26T16:10:52.039Z,16.63
2018-12-26T16:13:21.321Z,18.80
2018-12-26T16:15:52.776Z,18.20
2018-12-26T16:18:21.577Z,24.13
2018-12-26T16:20:51.618Z,18.90
2018-12-26T16:23:20.926Z,20.50
2018-12-26T16:25:50.217Z,17.50
2018-12-26T16:28:19.559Z,18.97
2018-12-26T16:30:48.859Z,17.50
2018-12-26T16:33:18.201Z,20.07
2018-12-26T16:35:47.517Z,16.97
2018-12-26T16:38:16.816Z,16.80
2018-12-26T16:40:46.159Z,17.27
2018-12-26T16:43:15.458Z,17.27
2018-12-26T16:45:44.819Z,15.67
2018-12-26T16:48:14.097Z,15.97
2018-12-26T16:50:43.447Z,18.13
2018-12-26T16:53:13.012Z,17.23
2018-12-26T16:55:42.294Z,16.13
2018-12-26T16:58:11.644Z,15.90
2018-12-26T17:00:41.510Z,16.03
2018-12-26T17:03:10.866Z,17.73
2018-12-26T17:05:40.160Z,15.43
2018-12-26T17:08:10.029Z,17.87
2018-12-26T17:10:39.386Z,17.63
2018-12-26T17:13:09.689Z,19.47
2018-12-26T17:15:39.028Z,18.10
2018-12-26T17:18:08.354Z,18.07
2018-12-26T17:20:37.971Z,17.60
2018-12-26T17:23:07.331Z,21.63
2018-12-26T17:25:36.627Z,17.47
2018-12-26T17:28:06.280Z,17.07
2018-12-26T17:30:35.634Z,15.70
2018-12-26T17:33:05.161Z,15.73
2018-12-26T17:35:35.511Z,16.47
2018-12-26T17:38:04.888Z,17.00
2018-12-26T17:40:34.178Z,15.97
2018-12-26T17:43:03.467Z,16.27
2018-12-26T17:45:32.815Z,15.30
2018-12-26T17:48:04.617Z,16.77
2018-12-26T17:50:45.605Z,21.83
2018-12-26T17:53:33.585Z,18.10
2018-12-26T17:56:15.490Z,17.07
2018-12-26T17:58:57.083Z,18.77
2018-12-26T18:01:35.937Z,19.90
2018-12-26T18:04:05.412Z,19.10
2018-12-26T18:06:34.716Z,17.77
2018-12-26T18:09:06.489Z,17.40
2018-12-26T18:11:35.751Z,16.97
2018-12-26T18:14:05.109Z,16.77
2018-12-26T18:16:34.521Z,18.23
2018-12-26T18:19:04.819Z,17.60
2018-12-26T18:21:34.156Z,17.27
2018-12-26T18:24:03.731Z,17.80
2018-12-26T18:26:33.326Z,17.13
2018-12-26T18:29:02.656Z,18.40
2018-12-26T18:31:32.060Z,17.37
2018-12-26T18:34:01.361Z,17.83
2018-12-26T18:36:31.276Z,16.90
2018-12-26T18:39:00.559Z,18.70
2018-12-26T18:41:32.281Z,17.33
2018-12-26T18:44:01.551Z,17.10
2018-12-26T18:46:30.848Z,16.63
2018-12-26T18:49:00.195Z,16.17
2018-12-26T18:51:29.524Z,22.75
2018-12-26T18:53:59.176Z,19.63
2018-12-26T18:56:28.545Z,19.53
2018-12-26T18:58:57.840Z,27.33
2018-12-26T19:01:30.767Z,23.93
2018-12-26T19:03:58.107Z,18.10
2018-12-26T19:06:27.388Z,15.97
2018-12-26T19:08:57.038Z,17.93
2018-12-26T19:11:26.618Z,17.30
2018-12-26T19:13:55.920Z,16.40
2018-12-26T19:16:25.296Z,16.53
2018-12-26T19:18:54.661Z,17.73
2018-12-26T19:21:24.024Z,18.33
2018-12-26T19:23:53.307Z,17.83
2018-12-26T19:26:22.708Z,18.70
2018-12-26T19:28:52.064Z,17.70
2018-12-26T19:31:21.429Z,19.20
2018-12-26T19:33:50.724Z,18.93
2018-12-26T19:36:20.019Z,17.73
2018-12-26T19:38:49.393Z,17.80
2018-12-26T19:41:18.737Z,16.93
2018-12-26T19:43:48.088Z,19.63
2018-12-26T19:46:17.396Z,19.90
2018-12-26T19:48:46.718Z,18.43
2018-12-26T19:51:16.259Z,19.00
2018-12-26T19:53:45.615Z,17.57
2018-12-26T19:56:14.903Z,16.87
2018-12-26T19:58:44.278Z,17.67
2018-12-26T20:01:13.640Z,17.70
2018-12-26T20:03:43.004Z,17.73
2018-12-26T20:06:12.304Z,19.23
2018-12-26T20:08:41.677Z,19.93
2018-12-26T20:11:11.137Z,18.70
2018-12-26T20:13:40.414Z,19.37
2018-12-26T20:16:09.791Z,19.30
2018-12-26T20:18:39.165Z,18.77
2018-12-26T20:21:08.649Z,18.73
2018-12-26T20:23:37.965Z,18.53
2018-12-26T20:26:07.327Z,19.23
2018-12-26T20:28:36.690Z,19.87
2018-12-26T20:31:06.050Z,19.73
2018-12-26T20:33:35.330Z,19.60
2018-12-26T20:36:05.218Z,18.10
2018-12-26T20:38:34.503Z,19.20
2018-12-26T20:41:06.559Z,18.07
2018-12-26T20:43:35.895Z,18.20
2018-12-26T20:46:05.584Z,19.00
2018-12-26T20:48:34.862Z,19.50
2018-12-26T20:51:05.180Z,18.10
2018-12-26T20:53:34.516Z,19.07
2018-12-26T20:56:05.240Z,17.77
2018-12-26T20:58:34.606Z,17.60
2018-12-26T21:01:05.547Z,17.90
2018-12-26T21:03:34.962Z,17.83
2018-12-26T21:06:04.255Z,16.67
2018-12-26T21:08:34.966Z,16.87
2018-12-26T21:11:04.504Z,16.30
2018-12-26T21:13:33.806Z,17.13
2018-12-26T21:16:03.097Z,16.33
2018-12-26T21:18:32.462Z,17.87
2018-12-26T21:21:03.615Z,17.50
2018-12-26T21:23:32.963Z,17.07
2018-12-26T21:26:02.749Z,17.23
2018-12-26T21:28:32.077Z,17.93
2018-12-26T21:31:03.507Z,17.67
2018-12-26T21:33:32.802Z,18.70
2018-12-26T21:36:03.863Z,18.80
2018-12-26T21:38:33.221Z,17.90
2018-12-26T21:41:02.684Z,18.57
2018-12-26T21:43:32.002Z,18.40
2018-12-26T21:46:02.943Z,18.23
2018-12-26T21:48:32.300Z,18.03
2018-12-26T21:51:02.011Z,17.17
2018-12-26T21:53:31.320Z,17.70
2018-12-26T21:56:00.681Z,18.57
2018-12-26T21:58:31.327Z,17.50
2018-12-26T22:01:00.632Z,17.27
2018-12-26T22:03:31.778Z,17.63
2018-12-26T22:06:01.960Z,18.17
2018-12-26T22:08:31.349Z,18.27
2018-12-26T22:13:48.600Z,17.87
2018-12-26T22:16:18.629Z,17.10
2018-12-26T22:18:47.942Z,18.07
2018-12-26T22:21:17.291Z,16.60
2018-12-26T22:23:46.582Z,17.40
2018-12-26T22:26:15.919Z,17.87
2018-12-26T22:28:45.954Z,17.07
2018-12-26T22:31:15.240Z,18.00
2018-12-26T22:33:45.227Z,18.73
2018-12-26T22:36:14.563Z,17.87
2018-12-26T22:38:43.863Z,19.57
2018-12-26T22:41:13.152Z,18.47
2018-12-26T22:43:42.482Z,18.27
2018-12-26T22:46:11.783Z,19.77
2018-12-26T22:48:41.148Z,18.53
2018-12-26T22:51:10.812Z,18.43
2018-12-26T22:53:42.233Z,17.57
2018-12-26T22:56:11.578Z,18.43
2018-12-26T22:58:40.917Z,18.17
2018-12-26T23:01:10.332Z,18.87
2018-12-26T23:03:39.614Z,18.50
2018-12-26T23:06:08.926Z,19.13
2018-12-26T23:08:38.278Z,17.63
2018-12-26T23:11:07.647Z,18.90
2018-12-26T23:13:36.974Z,17.63
